createdAt,value
2023-01-08T00:01:35.153Z,9.43
2023-01-08T00:04:03.019Z,9.77
2023-01-08T00:06:30.941Z,9.68
2023-01-08T00:09:01.665Z,9.90
2023-01-08T00:11:29.849Z,10.10
2023-01-08T00:13:57.724Z,7.85
2023-01-08T00:16:25.755Z,9.93
2023-01-08T00:18:53.846Z,9.23
2023-01-08T00:21:21.906Z,8.00
2023-01-08T00:23:50.430Z,11.20
2023-01-08T00:26:18.790Z,8.65
2023-01-08T00:28:47.207Z,8.95
2023-01-08T00:31:15.588Z,8.10
2023-01-08T00:33:43.559Z,9.60
2023-01-08T00:36:16.998Z,8.68
2023-01-08T00:38:47.174Z,11.10
2023-01-08T00:41:16.429Z,7.63
2023-01-08T00:43:44.326Z,9.07
2023-01-08T00:46:12.710Z,7.83
2023-01-08T00:48:40.527Z,8.90
2023-01-08T00:51:09.914Z,8.30
2023-01-08T00:53:40.830Z,9.65
2023-01-08T00:56:11.045Z,6.68
2023-01-08T00:58:39.520Z,7.60
2023-01-08T01:01:15.198Z,7.93
2023-01-08T01:03:44.468Z,7.00
2023-01-08T01:06:14.221Z,7.18
2023-01-08T01:08:42.701Z,7.32
2023-01-08T01:11:12.461Z,7.03
2023-01-08T01:13:40.517Z,7.50
2023-01-08T01:16:09.119Z,7.53
2023-01-08T01:18:37.131Z,6.43
2023-01-08T01:21:25.147Z,7.57
2023-01-08T01:23:58.541Z,8.13
2023-01-08T01:26:27.657Z,6.30
2023-01-08T01:28:57.305Z,7.45
2023-01-08T01:31:27.941Z,8.70
2023-01-08T01:33:56.800Z,7.90
2023-01-08T01:36:26.246Z,8.73
2023-01-08T01:38:57.397Z,8.30
2023-01-08T01:41:39.300Z,8.95
2023-01-08T01:44:35.838Z,8.35
2023-01-08T01:47:29.114Z,7.38
2023-01-08T01:50:21.337Z,7.27
2023-01-08T01:53:00.922Z,6.07
2023-01-08T01:55:29.865Z,6.25
2023-01-08T01:58:18.432Z,5.55
2023-01-08T02:00:47.073Z,6.47
2023-01-08T02:03:16.701Z,5.30
2023-01-08T02:06:12.909Z,7.55
2023-01-08T02:08:53.411Z,5.32
2023-01-08T02:12:19.556Z,5.68
2023-01-08T02:15:14.222Z,6.15
2023-01-08T02:18:09.077Z,5.07
2023-01-08T02:20:57.365Z,4.95
2023-01-08T02:23:49.036Z,6.13
2023-01-08T02:26:29.913Z,5.13
2023-01-08T02:29:04.239Z,5.60
2023-01-08T02:31:34.563Z,5.23
2023-01-08T02:34:02.891Z,5.18
2023-01-08T02:36:36.758Z,5.15
2023-01-08T02:39:35.896Z,6.47
2023-01-08T02:42:22.858Z,6.22
2023-01-08T02:45:12.286Z,5.83
2023-01-08T02:47:53.097Z,5.45
2023-01-08T02:50:32.160Z,6.15
2023-01-08T02:53:19.837Z,6.43
2023-01-08T02:55:56.221Z,7.25
2023-01-08T02:58:27.792Z,5.40
2023-01-08T03:00:56.939Z,6.72
2023-01-08T03:03:28.219Z,5.75
2023-01-08T03:06:02.215Z,5.53
2023-01-08T03:08:32.487Z,5.72
2023-01-08T03:11:09.532Z,5.73
2023-01-08T03:13:58.694Z,6.90
2023-01-08T03:16:41.702Z,6.20
2023-01-08T03:19:15.502Z,5.88
2023-01-08T03:21:46.369Z,5.88
2023-01-08T03:24:17.990Z,6.17
2023-01-08T03:26:50.443Z,6.40
2023-01-08T03:29:21.805Z,6.50
2023-01-08T03:31:51.816Z,7.13
2023-01-08T03:34:22.403Z,7.88
2023-01-08T03:36:54.849Z,7.77
2023-01-08T03:39:42.367Z,6.95
2023-01-08T03:42:14.955Z,8.07
2023-01-08T03:44:43.635Z,7.78
2023-01-08T03:47:12.835Z,7.25
2023-01-08T03:49:43.348Z,5.83
2023-01-08T03:52:24.140Z,6.32
2023-01-08T03:54:53.566Z,5.88
2023-01-08T03:57:22.268Z,8.13
2023-01-08T03:59:50.575Z,7.30
2023-01-08T04:02:18.875Z,6.53
2023-01-08T04:04:48.493Z,6.97
2023-01-08T04:07:17.066Z,6.47
2023-01-08T04:09:45.980Z,6.88
2023-01-08T04:12:14.158Z,7.57
2023-01-08T04:14:42.604Z,7.57
2023-01-08T04:17:14.510Z,7.57
2023-01-08T04:19:42.800Z,7.70
2023-01-08T04:22:12.865Z,7.68
2023-01-08T04:24:41.579Z,7.55
2023-01-08T04:27:09.553Z,8.30
2023-01-08T04:29:38.644Z,9.75
2023-01-08T04:32:07.355Z,10.88
2023-01-08T04:34:36.065Z,10.32
2023-01-08T04:37:07.512Z,9.93
2023-01-08T04:39:35.894Z,10.10
2023-01-08T04:42:04.374Z,9.95
2023-01-08T04:44:32.641Z,10.55
2023-01-08T04:47:01.337Z,11.18
2023-01-08T04:49:29.566Z,11.63
2023-01-08T04:51:58.261Z,11.90
2023-01-08T04:54:26.886Z,11.13
2023-01-08T04:56:55.243Z,12.88
2023-01-08T04:59:23.438Z,13.05
2023-01-08T05:01:52.141Z,8.40
2023-01-08T05:04:20.570Z,8.07
2023-01-08T05:06:48.811Z,8.07
2023-01-08T05:09:16.997Z,7.95
2023-01-08T05:11:45.128Z,8.80
2023-01-08T05:14:13.837Z,7.65
2023-01-08T05:16:41.768Z,7.80
2023-01-08T05:19:10.186Z,6.85
2023-01-08T05:21:38.500Z,6.10
2023-01-08T05:24:07.106Z,6.82
2023-01-08T05:26:35.883Z,5.50
2023-01-08T05:29:04.907Z,6.87
2023-01-08T05:31:33.365Z,5.95
2023-01-08T05:34:01.833Z,7.15
2023-01-08T05:36:32.236Z,6.10
2023-01-08T05:39:01.439Z,6.18
2023-01-08T05:41:29.991Z,5.40
2023-01-08T05:43:57.906Z,6.25
2023-01-08T05:46:26.192Z,5.93
2023-01-08T05:48:54.196Z,5.22
2023-01-08T05:51:22.727Z,7.78
2023-01-08T05:53:51.170Z,6.30
2023-01-08T05:56:19.293Z,5.25
2023-01-08T05:58:47.462Z,5.15
2023-01-08T06:01:16.834Z,6.53
2023-01-08T06:03:45.397Z,6.93
2023-01-08T06:06:13.909Z,7.33
2023-01-08T06:08:41.875Z,4.82
2023-01-08T06:11:12.309Z,4.85
2023-01-08T06:13:43.768Z,5.68
2023-01-08T06:16:12.594Z,5.13
2023-01-08T06:18:40.678Z,6.17
2023-01-08T06:21:09.094Z,6.07
2023-01-08T06:23:36.941Z,5.22
2023-01-08T06:26:05.245Z,5.85
2023-01-08T06:28:33.834Z,6.78
2023-01-08T06:31:03.111Z,5.27
2023-01-08T06:33:31.831Z,5.40
2023-01-08T06:36:04.916Z,5.85
2023-01-08T06:38:37.446Z,5.70
2023-01-08T06:41:07.514Z,6.75
2023-01-08T06:43:36.644Z,5.13
2023-01-08T06:46:09.266Z,5.40
2023-01-08T06:48:38.009Z,6.53
2023-01-08T06:51:06.482Z,5.82
2023-01-08T06:53:34.745Z,5.22
2023-01-08T06:56:04.433Z,4.30
2023-01-08T06:58:32.527Z,5.00
2023-01-08T07:01:00.537Z,4.88
2023-01-08T07:03:29.204Z,7.13
2023-01-08T07:05:57.819Z,5.35
2023-01-08T07:08:26.019Z,5.33
2023-01-08T07:10:54.645Z,6.63
2023-01-08T07:13:24.506Z,4.30
2023-01-08T07:15:52.576Z,4.95
2023-01-08T07:18:20.751Z,4.63
2023-01-08T07:20:51.427Z,4.37
2023-01-08T07:23:19.541Z,4.45
2023-01-08T07:25:47.951Z,5.45
2023-01-08T07:28:16.105Z,4.40
2023-01-08T07:30:45.359Z,4.97
2023-01-08T07:33:13.508Z,3.87
2023-01-08T07:35:41.319Z,4.10
2023-01-08T07:38:09.624Z,3.50
2023-01-08T07:40:39.343Z,4.80
2023-01-08T07:43:07.883Z,6.68
2023-01-08T07:45:36.118Z,5.03
2023-01-08T07:48:04.282Z,4.18
2023-01-08T07:50:32.781Z,4.90
2023-01-08T07:53:02.063Z,5.53
2023-01-08T07:55:32.111Z,4.38
2023-01-08T07:58:00.309Z,5.80
2023-01-08T08:00:31.488Z,3.35
2023-01-08T08:03:07.431Z,2.80
2023-01-08T08:05:36.046Z,4.32
2023-01-08T08:08:09.873Z,2.90
2023-01-08T08:10:38.623Z,8.73
2023-01-08T08:13:06.991Z,3.33
2023-01-08T08:15:36.782Z,5.40
2023-01-08T08:18:06.214Z,6.97
2023-01-08T08:20:34.471Z,4.05
2023-01-08T08:23:04.820Z,3.80
2023-01-08T08:25:32.907Z,3.53
2023-01-08T08:28:02.429Z,5.47
2023-01-08T08:30:32.923Z,5.07
2023-01-08T08:33:02.632Z,4.82
2023-01-08T08:35:32.247Z,4.47
2023-01-08T08:38:00.710Z,4.82
2023-01-08T08:40:29.388Z,11.02
2023-01-08T08:42:59.223Z,4.45
2023-01-08T08:45:28.188Z,3.03
2023-01-08T08:47:56.429Z,2.40
2023-01-08T08:50:25.094Z,3.42
2023-01-08T08:52:53.458Z,2.78
2023-01-08T08:55:21.562Z,3.38
2023-01-08T08:57:49.761Z,3.67
2023-01-08T09:00:18.397Z,2.43
2023-01-08T09:02:46.477Z,2.72
2023-01-08T09:05:14.617Z,3.45
2023-01-08T09:07:42.543Z,3.20
2023-01-08T09:10:10.682Z,2.95
2023-01-08T09:12:42.024Z,5.43
2023-01-08T09:15:10.524Z,3.20
2023-01-08T09:17:38.381Z,5.60
2023-01-08T09:20:07.437Z,3.92
2023-01-08T09:22:35.538Z,3.90
2023-01-08T09:25:03.850Z,5.73
2023-01-08T09:27:32.006Z,4.53
2023-01-08T09:30:00.085Z,7.53
2023-01-08T09:32:28.172Z,4.25
2023-01-08T09:34:56.291Z,5.70
2023-01-08T09:37:24.769Z,3.67
2023-01-08T09:40:01.534Z,5.30
2023-01-08T09:42:32.456Z,4.28
2023-01-08T09:45:02.400Z,4.93
2023-01-08T09:47:35.145Z,4.00
2023-01-08T09:50:08.295Z,4.03
2023-01-08T09:52:38.505Z,4.03
2023-01-08T09:55:17.208Z,4.20
2023-01-08T09:57:47.662Z,4.50
2023-01-08T10:00:20.105Z,3.20
2023-01-08T10:02:48.965Z,3.10
2023-01-08T10:05:18.926Z,5.20
2023-01-08T10:07:47.798Z,5.30
2023-01-08T10:10:27.010Z,3.38
2023-01-08T10:12:56.080Z,4.57
2023-01-08T10:15:24.223Z,3.57
2023-01-08T10:18:13.626Z,3.75
2023-01-08T10:20:41.661Z,6.10
2023-01-08T10:23:15.675Z,3.10
2023-01-08T10:25:51.766Z,3.55
2023-01-08T10:28:25.697Z,3.93
2023-01-08T10:30:58.980Z,4.00
2023-01-08T10:36:28.328Z,4.07
2023-01-08T10:39:01.200Z,4.82
2023-01-08T10:41:30.041Z,4.47
2023-01-08T10:44:18.495Z,4.47
2023-01-08T10:46:50.409Z,3.35
2023-01-08T10:49:35.024Z,3.72
2023-01-08T10:52:03.367Z,4.18
2023-01-08T10:54:41.718Z,3.73
2023-01-08T10:57:30.572Z,4.30
2023-01-08T10:59:59.084Z,3.53
2023-01-08T11:02:38.802Z,3.20
2023-01-08T11:05:11.938Z,4.00
2023-01-08T11:07:42.129Z,4.23
2023-01-08T11:10:25.193Z,3.38
2023-01-08T11:13:07.975Z,3.00
2023-01-08T11:15:42.487Z,3.40
2023-01-08T11:18:25.837Z,3.03
2023-01-08T11:21:06.922Z,2.63
2023-01-08T11:23:35.618Z,3.80
2023-01-08T11:26:20.941Z,4.43
2023-01-08T11:29:06.795Z,3.05
2023-01-08T11:31:56.176Z,5.50
2023-01-08T11:34:47.439Z,4.00
2023-01-08T11:37:27.142Z,4.40
2023-01-08T11:39:56.278Z,4.10
2023-01-08T11:42:49.018Z,3.80
2023-01-08T11:45:31.952Z,3.53
2023-01-08T11:48:02.899Z,3.13
2023-01-08T11:50:57.076Z,3.60
2023-01-08T11:53:44.280Z,2.90
2023-01-08T11:56:15.319Z,3.00
2023-01-08T11:58:58.694Z,4.35
2023-01-08T12:01:41.293Z,3.83
2023-01-08T12:04:24.195Z,3.67
2023-01-08T12:07:24.001Z,3.03
2023-01-08T12:10:21.157Z,3.10
2023-01-08T12:13:18.824Z,3.00
2023-01-08T12:16:16.427Z,4.50
2023-01-08T12:19:07.585Z,5.13
2023-01-08T12:21:49.342Z,3.33
2023-01-08T12:24:29.451Z,3.20
2023-01-08T12:27:56.844Z,4.00
2023-01-08T12:30:46.027Z,2.80
2023-01-08T12:33:34.395Z,3.33
2023-01-08T12:36:10.141Z,45.05
2023-01-08T12:38:45.195Z,4.57
2023-01-08T12:41:17.540Z,3.65
2023-01-08T12:43:58.784Z,2.80
2023-01-08T12:46:33.162Z,4.10
2023-01-08T12:49:02.898Z,5.28
2023-01-08T12:51:37.018Z,4.18
2023-01-08T12:54:13.032Z,3.95
2023-01-08T12:57:03.882Z,3.80
2023-01-08T12:59:42.141Z,5.30
2023-01-08T13:02:34.530Z,4.20
2023-01-08T13:05:30.239Z,4.30
2023-01-08T13:08:10.218Z,4.80
2023-01-08T13:10:40.317Z,6.13
2023-01-08T13:13:24.814Z,3.42
2023-01-08T13:15:53.148Z,5.60
2023-01-08T13:18:22.387Z,4.65
2023-01-08T13:20:59.121Z,3.75
2023-01-08T13:23:29.957Z,5.70
2023-01-08T13:26:03.283Z,4.10
2023-01-08T13:28:45.076Z,5.05
2023-01-08T13:31:22.368Z,4.05
2023-01-08T13:33:53.046Z,3.65
2023-01-08T13:36:27.696Z,7.20
2023-01-08T13:39:03.561Z,3.42
2023-01-08T13:41:35.599Z,3.40
2023-01-08T13:44:26.160Z,3.58
2023-01-08T13:47:00.673Z,2.80
2023-01-08T13:49:43.211Z,3.10
2023-01-08T13:52:48.662Z,3.63
2023-01-08T13:55:37.770Z,2.85
2023-01-08T13:58:11.219Z,3.20
2023-01-08T14:00:42.387Z,2.90
2023-01-08T14:03:27.931Z,3.30
2023-01-08T14:06:17.082Z,3.95
2023-01-08T14:08:56.031Z,3.47
2023-01-08T14:11:28.415Z,5.07
2023-01-08T14:13:57.463Z,3.42
2023-01-08T14:16:28.833Z,3.20
2023-01-08T14:19:02.140Z,4.13
2023-01-08T14:21:30.721Z,4.22
2023-01-08T14:23:58.939Z,4.60
2023-01-08T14:26:32.610Z,3.80
2023-01-08T14:29:01.994Z,3.23
2023-01-08T14:31:30.671Z,2.88
2023-01-08T14:34:01.148Z,4.18
2023-01-08T14:36:29.643Z,3.25
2023-01-08T14:38:58.250Z,4.05
2023-01-08T14:41:55.714Z,4.23
2023-01-08T14:44:36.491Z,3.42
2023-01-08T14:47:07.377Z,3.60
2023-01-08T14:49:44.391Z,3.97
2023-01-08T14:52:19.722Z,3.75
2023-01-08T14:54:56.553Z,4.77
2023-01-08T14:57:30.586Z,3.97
2023-01-08T15:00:01.776Z,3.70
2023-01-08T15:02:35.683Z,3.60
2023-01-08T15:05:31.202Z,3.40
2023-01-08T15:08:05.727Z,4.10
2023-01-08T15:10:37.571Z,3.80
2023-01-08T15:13:08.959Z,3.25
2023-01-08T15:15:53.202Z,4.07
2023-01-08T15:18:21.851Z,5.15
2023-01-08T15:20:49.988Z,5.63
2023-01-08T15:23:42.562Z,4.20
2023-01-08T15:26:15.036Z,4.20
2023-01-08T15:28:54.449Z,4.63
2023-01-08T15:31:28.793Z,9.07
2023-01-08T15:33:58.693Z,9.93
2023-01-08T15:36:27.461Z,12.18
2023-01-08T15:38:56.062Z,7.40
2023-01-08T15:41:42.997Z,4.95
2023-01-08T15:44:15.952Z,5.32
2023-01-08T15:46:44.234Z,7.40
2023-01-08T15:49:12.435Z,6.57
2023-01-08T15:51:47.991Z,6.18
2023-01-08T15:54:16.835Z,5.85
2023-01-08T15:56:44.987Z,5.03
2023-01-08T15:59:13.676Z,4.70
2023-01-08T16:01:41.841Z,4.43
2023-01-08T16:04:10.109Z,5.20
2023-01-08T16:06:38.176Z,5.88
2023-01-08T16:09:06.400Z,4.93
2023-01-08T16:11:34.946Z,5.60
2023-01-08T16:14:03.565Z,6.00
2023-01-08T16:16:31.619Z,5.03
2023-01-08T16:19:00.296Z,6.50
2023-01-08T16:21:28.314Z,5.35
2023-01-08T16:23:56.609Z,6.80
2023-01-08T16:26:24.742Z,7.13
2023-01-08T16:28:53.058Z,6.32
2023-01-08T16:31:21.095Z,6.15
2023-01-08T16:33:49.316Z,6.75
2023-01-08T16:36:17.495Z,8.30
2023-01-08T16:38:48.820Z,6.07
2023-01-08T16:41:17.025Z,4.90
2023-01-08T16:43:45.861Z,6.85
2023-01-08T16:46:15.769Z,7.78
2023-01-08T16:48:43.749Z,9.00
2023-01-08T16:51:12.489Z,8.65
2023-01-08T16:53:40.492Z,7.65
2023-01-08T16:56:09.383Z,6.30
2023-01-08T16:58:38.274Z,8.52
2023-01-08T17:01:11.491Z,9.57
2023-01-08T17:03:39.812Z,7.63
2023-01-08T17:06:13.047Z,7.78
2023-01-08T17:08:42.899Z,7.57
2023-01-08T17:11:17.363Z,7.88
2023-01-08T17:13:45.743Z,10.73
2023-01-08T17:16:16.301Z,9.10
2023-01-08T17:18:44.609Z,7.90
2023-01-08T17:21:15.079Z,8.55
2023-01-08T17:23:43.412Z,9.95
2023-01-08T17:26:14.777Z,10.87
2023-01-08T17:28:43.011Z,8.85
2023-01-08T17:31:13.229Z,9.05
2023-01-08T17:33:41.719Z,8.07
2023-01-08T17:36:16.280Z,8.90
2023-01-08T17:38:45.223Z,9.17
2023-01-08T17:41:34.433Z,8.82
2023-01-08T17:44:03.797Z,11.15
2023-01-08T17:46:31.789Z,7.18
2023-01-08T17:49:00.055Z,9.88
2023-01-08T17:51:28.378Z,12.50
2023-01-08T17:53:57.632Z,12.25
2023-01-08T17:56:25.827Z,13.57
2023-01-08T17:58:58.571Z,11.35
2023-01-08T18:01:27.456Z,13.45
2023-01-08T18:03:55.479Z,14.37
2023-01-08T18:06:24.140Z,12.07
2023-01-08T18:08:52.360Z,16.35
2023-01-08T18:11:20.907Z,19.95
2023-01-08T18:13:49.552Z,18.83
2023-01-08T18:16:19.139Z,18.23
2023-01-08T18:18:47.455Z,17.17
2023-01-08T18:21:15.648Z,17.10
2023-01-08T18:23:44.681Z,15.38
2023-01-08T18:26:12.736Z,17.27
2023-01-08T18:28:41.130Z,16.97
2023-01-08T18:31:11.462Z,16.27
2023-01-08T18:33:40.988Z,17.98
2023-01-08T18:36:13.405Z,19.88
2023-01-08T18:38:43.985Z,26.83
2023-01-08T18:41:37.099Z,39.50
2023-01-08T18:44:07.247Z,41.22
2023-01-08T18:46:36.010Z,57.08
2023-01-08T18:49:05.012Z,54.47
2023-01-08T18:51:34.561Z,53.83
2023-01-08T18:54:04.877Z,48.60
2023-01-08T18:56:36.170Z,57.72
2023-01-08T18:59:06.053Z,54.28
2023-01-08T19:01:36.649Z,52.83
2023-01-08T19:04:05.099Z,46.92
2023-01-08T19:06:33.099Z,42.50
2023-01-08T19:09:01.629Z,44.30
2023-01-08T19:11:29.436Z,40.28
2023-01-08T19:13:58.348Z,40.28
2023-01-08T19:16:27.263Z,44.45
2023-01-08T19:18:55.590Z,50.03
2023-01-08T19:21:24.087Z,51.08
2023-01-08T19:23:53.952Z,56.42
2023-01-08T19:26:22.053Z,51.55
2023-01-08T19:28:50.420Z,52.75
2023-01-08T19:31:19.242Z,46.10
2023-01-08T19:33:47.336Z,41.03
2023-01-08T19:36:17.093Z,41.30
2023-01-08T19:38:45.962Z,34.85
2023-01-08T19:41:35.222Z,34.22
2023-01-08T19:44:04.149Z,29.53
2023-01-08T19:46:32.614Z,21.88
2023-01-08T19:49:02.199Z,21.45
2023-01-08T19:51:32.249Z,17.85
2023-01-08T19:54:01.886Z,18.48
2023-01-08T19:56:31.767Z,18.37
2023-01-08T19:59:02.074Z,14.40
2023-01-08T20:01:30.585Z,17.15
2023-01-08T20:03:59.795Z,15.55
2023-01-08T20:06:28.846Z,16.10
2023-01-08T20:09:01.040Z,13.27
2023-01-08T20:11:31.816Z,13.57
2023-01-08T20:14:03.180Z,13.57
2023-01-08T20:16:34.327Z,13.38
2023-01-08T20:19:04.955Z,11.10
2023-01-08T20:21:35.268Z,12.70
2023-01-08T20:24:16.031Z,11.80
2023-01-08T20:26:46.141Z,11.27
2023-01-08T20:29:16.519Z,12.27
2023-01-08T20:31:46.801Z,12.50
2023-01-08T20:34:17.454Z,11.73
2023-01-08T20:36:48.713Z,11.25
2023-01-08T20:39:18.716Z,10.00
2023-01-08T20:41:55.780Z,11.07
2023-01-08T20:44:31.871Z,11.07
2023-01-08T20:47:01.228Z,14.43
2023-01-08T20:49:30.361Z,10.67
2023-01-08T20:52:02.341Z,10.02
2023-01-08T20:54:33.490Z,9.88
2023-01-08T20:57:02.386Z,9.73
2023-01-08T20:59:31.068Z,10.05
2023-01-08T21:01:59.930Z,11.03
2023-01-08T21:04:29.287Z,9.50
2023-01-08T21:07:01.630Z,8.70
2023-01-08T21:09:29.994Z,9.80
2023-01-08T21:12:00.150Z,10.05
2023-01-08T21:14:28.278Z,9.60
2023-01-08T21:16:56.935Z,9.15
2023-01-08T21:19:25.164Z,11.25
2023-01-08T21:21:56.309Z,10.05
2023-01-08T21:24:24.988Z,9.40
2023-01-08T21:26:53.102Z,8.20
2023-01-08T21:29:23.619Z,8.88
2023-01-08T21:31:52.578Z,9.43
2023-01-08T21:34:23.183Z,9.27
2023-01-08T21:36:51.782Z,9.27
2023-01-08T21:39:19.923Z,7.90
2023-01-08T21:42:06.923Z,8.30
2023-01-08T21:44:54.064Z,10.00
2023-01-08T21:47:22.322Z,9.00
2023-01-08T21:49:50.782Z,10.30
2023-01-08T21:52:37.937Z,9.13
2023-01-08T21:55:06.748Z,8.30
2023-01-08T21:57:40.255Z,8.35
2023-01-08T22:00:09.610Z,9.52
2023-01-08T22:02:37.854Z,6.70
2023-01-08T22:05:12.051Z,10.13
2023-01-08T22:07:40.430Z,8.93
2023-01-08T22:10:08.890Z,8.43
2023-01-08T22:12:37.110Z,8.27
2023-01-08T22:15:05.512Z,8.55
2023-01-08T22:17:33.764Z,6.67
2023-01-08T22:20:02.489Z,9.70
2023-01-08T22:22:30.780Z,5.95
2023-01-08T22:24:58.883Z,11.15
2023-01-08T22:27:27.146Z,11.30
2023-01-08T22:29:55.309Z,6.27
2023-01-08T22:32:23.376Z,7.40
2023-01-08T22:34:52.074Z,6.53
2023-01-08T22:37:22.104Z,6.47
2023-01-08T22:39:50.443Z,7.65
2023-01-08T22:42:18.630Z,5.97
2023-01-08T22:44:46.927Z,6.88
2023-01-08T22:47:14.880Z,6.22
2023-01-08T22:49:43.093Z,8.10
2023-01-08T22:52:12.099Z,6.90
2023-01-08T22:54:40.544Z,5.70
2023-01-08T22:57:08.813Z,6.30
2023-01-08T22:59:37.173Z,6.82
2023-01-08T23:02:05.063Z,8.50
2023-01-08T23:04:33.350Z,6.28
2023-01-08T23:07:01.381Z,6.77
2023-01-08T23:09:29.535Z,5.97
2023-01-08T23:11:57.432Z,5.60
2023-01-08T23:14:25.441Z,6.78
2023-01-08T23:16:53.258Z,5.90
2023-01-08T23:19:21.336Z,5.20
2023-01-08T23:21:49.048Z,6.95
2023-01-08T23:24:17.629Z,6.18
2023-01-08T23:26:45.865Z,7.20
2023-01-08T23:29:14.105Z,7.47
2023-01-08T23:31:44.440Z,6.90
2023-01-08T23:34:12.482Z,6.85
2023-01-08T23:36:41.341Z,5.90
2023-01-08T23:39:10.988Z,7.18
2023-01-08T23:41:39.170Z,5.95
2023-01-08T23:44:14.197Z,5.23
2023-01-08T23:46:42.470Z,7.43
2023-01-08T23:49:10.664Z,5.18
2023-01-08T23:51:42.828Z,5.35
2023-01-08T23:54:12.783Z,6.82
2023-01-08T23:56:41.739Z,6.70
2023-01-08T23:59:16.257Z,7.15
